createdAt,value
2022-11-27T00:00:44.978Z,90.89
2022-11-27T00:02:16.684Z,91.07
2022-11-27T00:03:49.814Z,91.23
2022-11-27T00:05:21.461Z,91.05
2022-11-27T00:06:53.065Z,90.89
2022-11-27T00:08:24.816Z,90.93
2022-11-27T00:09:56.471Z,91.83
2022-11-27T00:11:28.741Z,91.16
2022-11-27T00:13:00.361Z,91.74
2022-11-27T00:14:32.089Z,92.02
2022-11-27T00:16:04.259Z,92.86
2022-11-27T00:17:35.951Z,93.29
2022-11-27T00:19:09.624Z,92.51
2022-11-27T00:20:41.269Z,92.57
2022-11-27T00:22:12.868Z,91.22
2022-11-27T00:23:44.518Z,91.04
2022-11-27T00:25:16.205Z,91.87
2022-11-27T00:26:49.760Z,91.51
2022-11-27T00:28:21.437Z,91.37
2022-11-27T00:29:53.042Z,91.60
2022-11-27T00:31:29.510Z,91.62
2022-11-27T00:33:01.262Z,91.61
2022-11-27T00:34:34.348Z,91.00
2022-11-27T00:36:07.384Z,91.18
2022-11-27T00:37:39.030Z,91.28
2022-11-27T00:39:10.632Z,91.34
2022-11-27T00:40:42.228Z,91.16
2022-11-27T00:42:13.916Z,91.11
2022-11-27T00:43:45.790Z,90.78
2022-11-27T00:45:17.427Z,90.92
2022-11-27T00:46:49.236Z,92.50
2022-11-27T00:48:20.855Z,92.62
2022-11-27T00:49:53.849Z,91.73
2022-11-27T00:51:25.653Z,90.63
2022-11-27T00:52:57.366Z,90.66
2022-11-27T00:54:28.975Z,90.49
2022-11-27T00:56:00.599Z,91.78
2022-11-27T00:57:32.202Z,91.83
2022-11-27T00:59:03.935Z,91.42
2022-11-27T01:00:35.531Z,90.77
2022-11-27T01:02:07.210Z,91.15
2022-11-27T01:03:38.884Z,90.72
2022-11-27T01:05:11.833Z,91.46
2022-11-27T01:06:43.641Z,90.98
2022-11-27T01:08:15.184Z,91.39
2022-11-27T01:09:46.771Z,91.16
2022-11-27T01:11:20.388Z,91.00
2022-11-27T01:12:51.953Z,90.04
2022-11-27T01:14:23.523Z,91.06
2022-11-27T01:15:58.940Z,90.65
2022-11-27T01:17:30.506Z,91.08
2022-11-27T01:19:02.136Z,91.35
2022-11-27T01:20:37.504Z,91.87
2022-11-27T01:22:09.079Z,91.00
2022-11-27T01:23:40.739Z,91.42
2022-11-27T01:25:12.345Z,90.75
2022-11-27T01:26:44.103Z,91.13
2022-11-27T01:28:15.815Z,90.90
2022-11-27T01:29:47.382Z,90.81
2022-11-27T01:31:19.919Z,91.00
2022-11-27T01:32:51.552Z,91.39
2022-11-27T01:34:23.148Z,91.40
2022-11-27T01:35:57.098Z,91.23
2022-11-27T01:37:28.749Z,91.78
2022-11-27T01:39:00.524Z,91.82
2022-11-27T01:40:32.112Z,90.94
2022-11-27T01:42:03.977Z,91.16
2022-11-27T01:43:37.295Z,92.51
2022-11-27T01:45:09.582Z,92.01
2022-11-27T01:46:42.565Z,91.95
2022-11-27T01:48:14.222Z,91.42
2022-11-27T01:49:47.715Z,91.22
2022-11-27T01:51:20.747Z,91.92
2022-11-27T01:52:53.987Z,91.01
2022-11-27T01:54:26.652Z,90.55
2022-11-27T01:55:59.363Z,90.78
2022-11-27T01:57:31.859Z,90.77
2022-11-27T01:59:03.479Z,90.33
2022-11-27T02:00:35.128Z,90.37
2022-11-27T02:02:06.812Z,90.80
2022-11-27T02:03:38.434Z,90.37
2022-11-27T02:05:10.469Z,90.72
2022-11-27T02:06:43.470Z,90.48
2022-11-27T02:08:16.059Z,90.16
2022-11-27T02:09:47.650Z,90.72
2022-11-27T02:11:22.725Z,90.53
2022-11-27T02:12:56.572Z,90.63
2022-11-27T02:14:31.137Z,90.06
2022-11-27T02:16:12.689Z,91.27
2022-11-27T02:17:48.434Z,91.33
2022-11-27T02:19:25.862Z,92.33
2022-11-27T02:20:59.611Z,91.72
2022-11-27T02:22:38.445Z,92.42
2022-11-27T02:24:30.648Z,91.19
2022-11-27T02:26:18.005Z,91.10
2022-11-27T02:27:58.864Z,90.99
2022-11-27T02:29:32.297Z,91.51
2022-11-27T02:31:10.562Z,91.25
2022-11-27T02:32:44.130Z,91.51
2022-11-27T02:34:23.527Z,92.50
2022-11-27T02:35:56.656Z,91.31
2022-11-27T02:37:32.354Z,91.56
2022-11-27T02:39:06.002Z,90.73
2022-11-27T02:40:38.986Z,90.97
2022-11-27T02:42:12.878Z,92.40
2022-11-27T02:43:46.316Z,92.11
2022-11-27T02:45:21.672Z,92.18
2022-11-27T02:46:53.327Z,92.37
2022-11-27T02:48:26.865Z,92.99
2022-11-27T02:49:58.450Z,91.75
2022-11-27T02:51:33.618Z,91.34
2022-11-27T02:53:06.931Z,92.20
2022-11-27T02:54:38.702Z,91.76
2022-11-27T02:56:12.476Z,92.26
2022-11-27T02:57:44.104Z,92.40
2022-11-27T02:59:15.706Z,93.20
2022-11-27T03:00:48.664Z,92.30
2022-11-27T03:02:22.367Z,93.31
2022-11-27T03:03:56.038Z,94.07
2022-11-27T03:05:30.367Z,93.21
2022-11-27T03:07:03.423Z,92.43
2022-11-27T03:08:37.597Z,93.81
2022-11-27T03:10:11.905Z,93.72
2022-11-27T03:11:43.509Z,91.59
2022-11-27T03:13:15.126Z,92.32
2022-11-27T03:14:46.725Z,90.95
2022-11-27T03:16:22.752Z,91.12
2022-11-27T03:17:55.654Z,91.35
2022-11-27T03:19:30.905Z,90.57
2022-11-27T03:21:05.397Z,91.41
2022-11-27T03:22:37.061Z,91.44
2022-11-27T03:24:08.837Z,91.61
2022-11-27T03:25:40.405Z,91.78
2022-11-27T03:27:12.678Z,91.40
2022-11-27T03:28:44.714Z,91.53
2022-11-27T03:30:16.456Z,92.21
2022-11-27T03:31:49.681Z,92.74
2022-11-27T03:33:21.292Z,91.76
2022-11-27T03:34:52.865Z,92.19
2022-11-27T03:36:24.476Z,92.13
2022-11-27T03:37:56.042Z,92.59
2022-11-27T03:39:27.643Z,92.21
2022-11-27T03:41:01.993Z,92.28
2022-11-27T03:42:36.489Z,91.96
2022-11-27T03:44:12.055Z,91.29
2022-11-27T03:45:46.336Z,91.50
2022-11-27T03:47:26.286Z,91.06
2022-11-27T03:48:59.734Z,91.20
2022-11-27T03:50:35.685Z,91.36
2022-11-27T03:52:08.616Z,91.63
2022-11-27T03:53:44.615Z,92.01
2022-11-27T03:55:17.686Z,91.82
2022-11-27T03:56:53.070Z,91.49
2022-11-27T03:58:27.139Z,91.06
2022-11-27T03:59:59.001Z,91.11
2022-11-27T04:01:30.650Z,90.81
2022-11-27T04:03:03.955Z,91.23
2022-11-27T04:04:35.604Z,91.95
2022-11-27T04:06:07.281Z,92.28
2022-11-27T04:07:39.027Z,91.73
2022-11-27T04:09:10.677Z,91.29
2022-11-27T04:10:42.330Z,91.00
2022-11-27T04:12:13.931Z,91.29
2022-11-27T04:13:45.576Z,91.29
2022-11-27T04:15:17.353Z,91.39
2022-11-27T04:16:49.008Z,90.64
2022-11-27T04:18:21.963Z,90.73
2022-11-27T04:19:53.666Z,90.80
2022-11-27T04:21:25.305Z,90.02
2022-11-27T04:22:56.930Z,90.38
2022-11-27T04:24:28.559Z,91.06
2022-11-27T04:26:00.264Z,91.41
2022-11-27T04:27:31.867Z,90.75
2022-11-27T04:29:03.458Z,91.44
2022-11-27T04:30:35.074Z,91.25
2022-11-27T04:32:06.716Z,90.76
2022-11-27T04:33:39.662Z,91.24
2022-11-27T04:35:11.305Z,91.78
2022-11-27T04:36:42.942Z,90.76
2022-11-27T04:38:14.628Z,91.20
2022-11-27T04:39:46.231Z,91.34
2022-11-27T04:41:17.882Z,91.62
2022-11-27T04:42:49.507Z,91.27
2022-11-27T04:44:22.745Z,90.95
2022-11-27T04:45:54.378Z,91.11
2022-11-27T04:47:25.981Z,91.47
2022-11-27T04:48:58.944Z,91.94
2022-11-27T04:50:30.688Z,92.96
2022-11-27T04:52:02.342Z,93.36
2022-11-27T04:53:33.959Z,93.10
2022-11-27T04:55:06.500Z,94.96
2022-11-27T04:56:38.105Z,93.86
2022-11-27T04:58:09.740Z,92.83
2022-11-27T04:59:41.329Z,92.88
2022-11-27T05:01:13.079Z,92.33
2022-11-27T05:02:44.956Z,91.75
2022-11-27T05:04:17.973Z,91.75
2022-11-27T05:05:54.719Z,92.04
2022-11-27T05:07:26.395Z,90.98
2022-11-27T05:09:01.928Z,91.95
2022-11-27T05:10:33.513Z,91.90
2022-11-27T05:12:05.696Z,92.46
2022-11-27T05:13:37.265Z,92.81
2022-11-27T05:15:09.652Z,93.35
2022-11-27T05:16:41.310Z,93.31
2022-11-27T05:18:13.002Z,93.48
2022-11-27T05:19:45.932Z,92.95
2022-11-27T05:21:17.553Z,92.34
2022-11-27T05:22:49.632Z,92.26
2022-11-27T05:24:23.050Z,92.28
2022-11-27T05:25:54.743Z,92.23
2022-11-27T05:27:26.310Z,91.77
2022-11-27T05:28:57.965Z,91.33
2022-11-27T05:30:29.564Z,92.02
2022-11-27T05:32:01.172Z,92.01
2022-11-27T05:33:32.766Z,92.22
2022-11-27T05:35:06.408Z,92.29
2022-11-27T05:36:38.050Z,92.27
2022-11-27T05:38:09.706Z,92.91
2022-11-27T05:39:41.540Z,94.06
2022-11-27T05:41:13.126Z,94.33
2022-11-27T05:42:44.722Z,95.32
2022-11-27T05:44:16.382Z,94.46
2022-11-27T05:45:47.988Z,94.65
2022-11-27T05:47:19.595Z,95.37
2022-11-27T05:48:51.240Z,95.13
2022-11-27T05:50:24.408Z,93.99
2022-11-27T05:51:56.079Z,94.61
2022-11-27T05:53:27.683Z,94.03
2022-11-27T05:54:59.303Z,93.10
2022-11-27T05:56:30.930Z,93.08
2022-11-27T05:58:02.558Z,92.33
2022-11-27T05:59:34.136Z,93.75
2022-11-27T06:01:05.951Z,93.68
2022-11-27T06:02:37.718Z,94.73
2022-11-27T06:04:09.372Z,93.83
2022-11-27T06:05:42.335Z,94.82
2022-11-27T06:07:14.021Z,94.74
2022-11-27T06:08:45.761Z,94.77
2022-11-27T06:10:17.500Z,94.31
2022-11-27T06:11:49.166Z,94.75
2022-11-27T06:13:20.752Z,94.28
2022-11-27T06:14:52.403Z,93.69
2022-11-27T06:16:24.219Z,95.29
2022-11-27T06:17:56.303Z,95.06
2022-11-27T06:19:27.933Z,93.84
2022-11-27T06:21:00.901Z,94.44
2022-11-27T06:22:32.558Z,94.66
2022-11-27T06:24:04.354Z,93.36
2022-11-27T06:25:35.946Z,93.83
2022-11-27T06:27:07.541Z,94.08
2022-11-27T06:28:39.176Z,93.79
2022-11-27T06:30:12.143Z,92.91
2022-11-27T06:31:43.788Z,92.45
2022-11-27T06:33:15.536Z,92.37
2022-11-27T06:34:47.139Z,92.91
2022-11-27T06:36:20.234Z,93.37
2022-11-27T06:37:51.866Z,93.12
2022-11-27T06:39:23.446Z,94.14
2022-11-27T06:40:55.025Z,94.11
2022-11-27T06:42:28.842Z,93.77
2022-11-27T06:44:00.768Z,93.42
2022-11-27T06:45:32.416Z,93.36
2022-11-27T06:47:04.113Z,92.99
2022-11-27T06:48:35.721Z,93.64
2022-11-27T06:50:08.212Z,93.20
2022-11-27T06:51:41.262Z,94.32
2022-11-27T06:53:12.869Z,94.59
2022-11-27T06:54:44.487Z,96.02
2022-11-27T06:56:17.241Z,94.87
2022-11-27T06:57:50.079Z,94.70
2022-11-27T06:59:21.720Z,94.29
2022-11-27T07:00:57.485Z,95.38
2022-11-27T07:02:30.236Z,95.06
2022-11-27T07:04:01.963Z,95.50
2022-11-27T07:05:33.601Z,96.95
2022-11-27T07:07:06.537Z,97.23
2022-11-27T07:08:38.196Z,96.52
2022-11-27T07:10:10.128Z,96.30
2022-11-27T07:11:41.742Z,95.17
2022-11-27T07:13:13.345Z,94.12
2022-11-27T07:14:45.018Z,94.06
2022-11-27T07:16:16.943Z,94.91
2022-11-27T07:17:48.600Z,94.84
2022-11-27T07:19:20.530Z,94.69
2022-11-27T07:20:56.246Z,94.23
2022-11-27T07:22:31.918Z,94.02
2022-11-27T07:24:03.666Z,94.32
2022-11-27T07:25:37.356Z,93.72
2022-11-27T07:27:08.979Z,94.84
2022-11-27T07:28:43.641Z,93.70
2022-11-27T07:30:15.699Z,94.54
2022-11-27T07:31:47.966Z,94.97
2022-11-27T07:33:19.631Z,95.78
2022-11-27T07:34:51.254Z,94.59
2022-11-27T07:36:23.939Z,95.85
2022-11-27T07:37:56.940Z,96.38
2022-11-27T07:39:54.042Z,95.53
2022-11-27T07:41:20.707Z,95.13
2022-11-27T07:42:52.304Z,94.57
2022-11-27T07:44:23.921Z,94.25
2022-11-27T07:45:55.615Z,94.11
2022-11-27T07:47:27.310Z,95.12
2022-11-27T07:49:00.498Z,94.61
2022-11-27T07:50:32.309Z,94.71
2022-11-27T07:52:03.980Z,95.48
2022-11-27T07:53:38.194Z,95.64
2022-11-27T07:55:10.081Z,95.93
2022-11-27T07:56:41.703Z,95.37
2022-11-27T07:58:13.292Z,94.50
2022-11-27T07:59:47.498Z,95.03
2022-11-27T08:01:19.561Z,94.85
2022-11-27T08:02:51.284Z,93.76
2022-11-27T08:04:22.979Z,94.77
2022-11-27T08:05:54.682Z,94.80
2022-11-27T08:07:27.405Z,95.47
2022-11-27T08:09:00.456Z,95.01
2022-11-27T08:10:32.074Z,95.68
2022-11-27T08:12:04.072Z,94.92
2022-11-27T08:13:35.682Z,95.45
2022-11-27T08:15:08.431Z,95.11
2022-11-27T08:16:40.130Z,96.04
2022-11-27T08:18:11.789Z,94.76
2022-11-27T08:19:43.365Z,94.74
2022-11-27T08:21:15.012Z,95.40
2022-11-27T08:22:49.582Z,95.10
2022-11-27T08:24:22.534Z,95.53
2022-11-27T08:25:54.130Z,95.49
2022-11-27T08:27:25.816Z,96.49
2022-11-27T08:28:57.553Z,96.25
2022-11-27T08:30:29.162Z,95.76
2022-11-27T08:32:08.283Z,96.10
2022-11-27T08:33:39.979Z,95.77
2022-11-27T08:35:11.601Z,95.98
2022-11-27T08:36:43.480Z,95.30
2022-11-27T08:38:15.044Z,95.21
2022-11-27T08:39:48.011Z,95.76
2022-11-27T08:41:19.580Z,95.72
2022-11-27T08:42:51.174Z,95.94
2022-11-27T08:44:22.885Z,95.02
2022-11-27T08:45:54.780Z,94.33
2022-11-27T08:47:26.464Z,94.68
2022-11-27T08:48:58.998Z,94.92
2022-11-27T08:50:30.594Z,95.04
2022-11-27T08:52:02.234Z,95.20
2022-11-27T08:53:33.998Z,95.60
2022-11-27T08:55:08.360Z,95.40
2022-11-27T08:56:39.961Z,94.49
2022-11-27T08:58:11.556Z,94.93
2022-11-27T08:59:43.177Z,95.22
2022-11-27T09:01:15.916Z,95.50
2022-11-27T09:02:47.593Z,94.92
2022-11-27T09:04:19.216Z,95.62
2022-11-27T09:05:50.840Z,94.32
2022-11-27T09:07:22.543Z,93.65
2022-11-27T09:08:55.734Z,93.60
2022-11-27T09:10:28.804Z,93.86
2022-11-27T09:12:00.418Z,93.91
2022-11-27T09:13:32.376Z,93.44
2022-11-27T09:15:04.724Z,93.90
2022-11-27T09:16:36.397Z,95.00
2022-11-27T09:18:08.104Z,94.94
2022-11-27T09:19:39.753Z,96.14
2022-11-27T09:21:11.909Z,94.81
2022-11-27T09:22:43.542Z,95.06
2022-11-27T09:24:15.160Z,94.50
2022-11-27T09:25:49.540Z,94.83
2022-11-27T09:27:21.142Z,94.34
2022-11-27T09:28:52.858Z,94.47
2022-11-27T09:30:24.449Z,94.29
2022-11-27T09:31:56.175Z,94.85
2022-11-27T09:33:28.644Z,94.12
2022-11-27T09:35:00.286Z,94.00
2022-11-27T09:36:31.907Z,94.87
2022-11-27T09:38:03.480Z,94.98
2022-11-27T09:39:35.366Z,94.51
2022-11-27T09:41:29.426Z,95.38
2022-11-27T09:43:09.690Z,93.99
2022-11-27T09:44:43.378Z,95.59
2022-11-27T09:46:17.688Z,95.78
2022-11-27T09:47:50.254Z,95.56
2022-11-27T09:49:24.846Z,96.02
2022-11-27T09:50:56.454Z,95.65
2022-11-27T09:52:31.405Z,94.99
2022-11-27T09:54:05.590Z,93.44
2022-11-27T09:55:38.094Z,94.93
2022-11-27T09:57:11.258Z,95.29
2022-11-27T09:58:43.401Z,95.27
2022-11-27T10:00:18.333Z,95.48
2022-11-27T10:01:51.178Z,96.21
2022-11-27T10:03:24.758Z,95.05
2022-11-27T10:07:01.665Z,95.18
2022-11-27T10:08:36.973Z,95.40
2022-11-27T10:10:16.193Z,96.09
2022-11-27T10:11:51.099Z,95.67
2022-11-27T10:13:32.789Z,95.81
2022-11-27T10:15:06.926Z,95.65
2022-11-27T10:18:33.348Z,95.35
2022-11-27T10:20:16.399Z,96.09
2022-11-27T10:21:51.541Z,96.39
2022-11-27T10:23:27.355Z,95.56
2022-11-27T10:25:02.304Z,95.56
2022-11-27T10:26:36.626Z,94.89
2022-11-27T10:28:15.157Z,96.16
2022-11-27T10:29:50.480Z,95.68
2022-11-27T10:31:28.284Z,95.12
2022-11-27T10:33:00.286Z,95.71
2022-11-27T10:34:34.943Z,96.16
2022-11-27T10:36:10.910Z,95.97
2022-11-27T10:37:43.700Z,95.69
2022-11-27T10:39:16.474Z,95.18
2022-11-27T10:40:50.435Z,95.82
2022-11-27T10:42:24.168Z,95.78
2022-11-27T10:43:56.435Z,95.57
2022-11-27T10:45:31.988Z,95.79
2022-11-27T10:47:04.788Z,95.55
2022-11-27T10:48:36.587Z,95.33
2022-11-27T10:50:12.903Z,95.10
2022-11-27T10:51:44.551Z,94.25
2022-11-27T10:53:19.707Z,93.60
2022-11-27T10:54:54.564Z,93.60
2022-11-27T10:56:49.200Z,93.98
2022-11-27T10:58:24.180Z,93.33
2022-11-27T11:00:02.188Z,94.25
2022-11-27T11:01:43.054Z,94.91
2022-11-27T11:03:16.934Z,93.78
2022-11-27T11:05:09.050Z,94.69
2022-11-27T11:06:41.793Z,94.76
2022-11-27T11:08:15.960Z,94.41
2022-11-27T11:09:48.537Z,93.97
2022-11-27T11:11:25.263Z,92.92
2022-11-27T11:13:15.823Z,93.77
2022-11-27T11:14:50.703Z,93.82
2022-11-27T11:16:24.522Z,92.35
2022-11-27T11:17:57.901Z,92.25
2022-11-27T11:19:30.311Z,92.79
2022-11-27T11:21:04.958Z,92.53
2022-11-27T11:22:36.562Z,92.18
2022-11-27T11:24:13.809Z,92.76
2022-11-27T11:25:49.261Z,93.17
2022-11-27T11:27:21.813Z,92.74
2022-11-27T11:28:54.317Z,92.92
2022-11-27T11:30:34.712Z,93.24
2022-11-27T11:32:08.820Z,92.78
2022-11-27T11:33:49.088Z,93.08
2022-11-27T11:35:25.840Z,92.88
2022-11-27T11:36:58.208Z,92.18
2022-11-27T11:38:31.560Z,92.51
2022-11-27T11:40:04.547Z,92.81
2022-11-27T11:41:37.397Z,92.58
2022-11-27T11:43:35.520Z,92.84
2022-11-27T11:45:16.673Z,93.14
2022-11-27T11:46:51.660Z,91.25
2022-11-27T11:48:24.930Z,92.06
2022-11-27T11:49:57.940Z,92.50
2022-11-27T11:51:50.782Z,91.22
2022-11-27T11:53:24.525Z,91.53
2022-11-27T11:54:59.878Z,91.72
2022-11-27T11:56:32.399Z,91.97
2022-11-27T11:58:13.523Z,90.68
2022-11-27T11:59:47.147Z,91.03
2022-11-27T12:01:30.562Z,90.87
2022-11-27T12:03:13.235Z,91.38
2022-11-27T12:05:02.784Z,91.86
2022-11-27T12:06:44.860Z,91.00
2022-11-27T12:08:33.377Z,91.88
2022-11-27T12:10:08.098Z,91.56
2022-11-27T12:11:44.235Z,91.33
2022-11-27T12:13:22.136Z,91.82
2022-11-27T12:14:56.122Z,91.70
2022-11-27T12:16:31.405Z,91.46
2022-11-27T12:18:05.096Z,91.71
2022-11-27T12:20:00.212Z,91.67
2022-11-27T12:21:37.500Z,91.20
2022-11-27T12:23:54.437Z,91.14
2022-11-27T12:25:29.187Z,91.26
2022-11-27T12:27:07.995Z,91.38
2022-11-27T12:28:58.979Z,90.89
2022-11-27T12:30:36.029Z,91.02
2022-11-27T12:32:30.199Z,90.52
2022-11-27T12:34:02.805Z,90.24
2022-11-27T12:35:34.925Z,90.80
2022-11-27T12:37:14.372Z,90.55
2022-11-27T12:39:10.729Z,91.19
2022-11-27T12:40:56.888Z,90.88
2022-11-27T12:42:29.878Z,90.57
2022-11-27T12:44:01.458Z,90.72
2022-11-27T12:45:35.071Z,90.53
2022-11-27T12:47:08.441Z,91.58
2022-11-27T12:48:41.757Z,90.92
2022-11-27T12:50:17.208Z,90.29
2022-11-27T12:51:49.447Z,89.93
2022-11-27T12:53:25.168Z,90.29
2022-11-27T12:54:58.849Z,89.65
2022-11-27T12:56:33.336Z,90.27
2022-11-27T12:58:05.839Z,89.98
2022-11-27T12:59:43.327Z,90.01
2022-11-27T13:01:26.788Z,90.18
2022-11-27T13:03:02.802Z,90.40
2022-11-27T13:04:37.081Z,89.50
2022-11-27T13:06:10.058Z,90.19
2022-11-27T13:07:43.704Z,89.69
2022-11-27T13:09:17.024Z,90.22
2022-11-27T13:10:52.326Z,89.87
2022-11-27T13:12:28.565Z,89.86
2022-11-27T13:14:03.174Z,90.21
2022-11-27T13:15:35.917Z,90.00
2022-11-27T13:17:10.136Z,89.96
2022-11-27T13:18:43.960Z,90.20
2022-11-27T13:20:16.605Z,91.05
2022-11-27T13:21:48.244Z,91.51
2022-11-27T13:23:20.057Z,90.12
2022-11-27T13:24:51.619Z,90.28
2022-11-27T13:26:26.566Z,90.18
2022-11-27T13:27:59.812Z,89.91
2022-11-27T13:29:32.307Z,89.57
2022-11-27T13:31:03.883Z,89.64
2022-11-27T13:32:36.858Z,90.15
2022-11-27T13:34:10.064Z,90.95
2022-11-27T13:35:42.527Z,90.38
2022-11-27T13:37:25.806Z,91.39
2022-11-27T13:38:58.970Z,90.93
2022-11-27T13:40:31.581Z,90.93
2022-11-27T13:42:06.000Z,90.64
2022-11-27T13:43:42.516Z,90.92
2022-11-27T13:45:19.673Z,90.37
2022-11-27T13:46:54.782Z,90.12
2022-11-27T13:48:29.992Z,90.49
2022-11-27T13:50:03.065Z,88.84
2022-11-27T13:51:35.877Z,88.83
2022-11-27T13:53:07.466Z,89.92
2022-11-27T13:54:39.114Z,87.95
2022-11-27T13:56:10.739Z,87.86
2022-11-27T13:57:42.350Z,88.14
2022-11-27T13:59:16.834Z,87.62
2022-11-27T14:00:48.618Z,87.91
2022-11-27T14:02:20.364Z,89.23
2022-11-27T14:03:52.070Z,88.85
2022-11-27T14:05:35.023Z,89.41
2022-11-27T14:07:08.234Z,89.42
2022-11-27T14:08:39.914Z,89.49
2022-11-27T14:10:13.810Z,90.15
2022-11-27T14:11:46.281Z,90.32
2022-11-27T14:13:17.851Z,90.45
2022-11-27T14:15:01.825Z,89.64
2022-11-27T14:16:34.329Z,90.28
2022-11-27T14:18:08.550Z,89.30
2022-11-27T14:19:41.565Z,89.79
2022-11-27T14:21:24.146Z,90.47
2022-11-27T14:23:13.178Z,89.68
2022-11-27T14:24:46.584Z,89.27
2022-11-27T14:26:20.663Z,90.30
2022-11-27T14:28:00.219Z,91.21
2022-11-27T14:29:31.879Z,91.12
2022-11-27T14:31:05.143Z,91.11
2022-11-27T14:32:36.832Z,91.44
2022-11-27T14:34:26.733Z,91.60
2022-11-27T14:35:59.082Z,91.67
2022-11-27T14:37:31.182Z,91.11
2022-11-27T14:39:03.073Z,90.32
2022-11-27T14:40:34.657Z,90.52
2022-11-27T14:42:08.009Z,90.62
2022-11-27T14:43:39.592Z,89.62
2022-11-27T14:45:13.528Z,90.49
2022-11-27T14:46:46.574Z,89.46
2022-11-27T14:48:20.313Z,90.41
2022-11-27T14:49:56.045Z,89.69
2022-11-27T14:51:28.984Z,90.21
2022-11-27T14:53:00.581Z,90.50
2022-11-27T14:54:33.468Z,90.41
2022-11-27T14:56:05.628Z,90.10
2022-11-27T14:57:37.284Z,89.76
2022-11-27T14:59:11.266Z,89.79
2022-11-27T15:00:52.602Z,89.93
2022-11-27T15:02:29.135Z,90.42
2022-11-27T15:04:03.648Z,90.52
2022-11-27T15:05:35.761Z,90.33
2022-11-27T15:07:13.213Z,90.48
2022-11-27T15:08:57.916Z,90.49
2022-11-27T15:10:38.813Z,90.54
2022-11-27T15:12:15.277Z,90.19
2022-11-27T15:13:51.581Z,91.20
2022-11-27T15:15:24.102Z,91.41
2022-11-27T15:16:55.941Z,90.25
2022-11-27T15:18:28.973Z,90.30
2022-11-27T15:20:00.728Z,90.42
2022-11-27T15:21:33.941Z,89.97
2022-11-27T15:23:11.598Z,90.15
2022-11-27T15:24:43.197Z,91.32
2022-11-27T15:26:19.976Z,91.91
2022-11-27T15:27:54.235Z,91.21
2022-11-27T15:29:32.375Z,90.57
2022-11-27T15:31:20.347Z,90.63
2022-11-27T15:32:52.824Z,91.01
2022-11-27T15:34:25.874Z,91.26
2022-11-27T15:36:16.468Z,91.38
2022-11-27T15:37:48.182Z,91.90
2022-11-27T15:39:21.524Z,91.28
2022-11-27T15:40:57.809Z,91.45
2022-11-27T15:42:30.258Z,91.58
2022-11-27T15:44:03.187Z,91.74
2022-11-27T15:45:34.912Z,92.01
2022-11-27T15:47:06.623Z,91.67
2022-11-27T15:48:38.236Z,91.65
2022-11-27T15:50:13.841Z,92.26
2022-11-27T15:51:45.596Z,92.06
2022-11-27T15:53:17.536Z,91.83
2022-11-27T15:54:49.891Z,91.45
2022-11-27T15:56:21.572Z,91.54
2022-11-27T15:57:53.274Z,91.60
2022-11-27T15:59:24.932Z,92.42
2022-11-27T16:00:56.763Z,91.55
2022-11-27T16:02:30.387Z,91.59
2022-11-27T16:04:02.189Z,91.18
2022-11-27T16:05:35.186Z,91.19
2022-11-27T16:07:08.150Z,91.50
2022-11-27T16:08:39.796Z,91.25
2022-11-27T16:10:11.708Z,92.28
2022-11-27T16:11:43.366Z,92.33
2022-11-27T16:13:15.013Z,92.71
2022-11-27T16:14:46.762Z,92.42
2022-11-27T16:16:18.537Z,91.79
2022-11-27T16:17:50.261Z,91.44
2022-11-27T16:19:21.937Z,91.48
2022-11-27T16:20:54.953Z,91.78
2022-11-27T16:22:26.604Z,91.18
2022-11-27T16:23:58.947Z,92.36
2022-11-27T16:25:30.630Z,92.47
2022-11-27T16:27:02.279Z,92.17
2022-11-27T16:28:34.021Z,93.00
2022-11-27T16:30:07.070Z,91.80
2022-11-27T16:31:40.131Z,92.06
2022-11-27T16:33:11.995Z,91.85
2022-11-27T16:34:43.796Z,91.87
2022-11-27T16:36:20.553Z,91.44
2022-11-27T16:37:52.215Z,91.51
2022-11-27T16:39:24.238Z,92.28
2022-11-27T16:40:59.604Z,91.55
2022-11-27T16:42:31.288Z,91.56
2022-11-27T16:44:03.036Z,91.08
2022-11-27T16:45:35.287Z,90.90
2022-11-27T16:47:06.922Z,90.91
2022-11-27T16:48:39.282Z,91.32
2022-11-27T16:50:11.138Z,90.73
2022-11-27T16:51:44.362Z,91.29
2022-11-27T16:53:15.989Z,91.09
2022-11-27T16:54:47.742Z,91.71
2022-11-27T16:56:20.094Z,91.83
2022-11-27T16:57:51.750Z,92.48
2022-11-27T16:59:23.404Z,92.03
2022-11-27T17:00:55.125Z,91.57
2022-11-27T17:02:28.848Z,91.36
2022-11-27T17:04:01.045Z,91.97
2022-11-27T17:05:33.138Z,91.98
2022-11-27T17:07:06.200Z,92.18
2022-11-27T17:08:38.072Z,92.12
2022-11-27T17:10:10.193Z,92.03
2022-11-27T17:11:42.596Z,92.78
2022-11-27T17:13:14.249Z,92.62
2022-11-27T17:14:47.089Z,92.51
2022-11-27T17:16:18.835Z,92.32
2022-11-27T17:17:51.936Z,91.86
2022-11-27T17:19:26.357Z,92.46
2022-11-27T17:21:02.399Z,92.67
2022-11-27T17:22:35.414Z,92.24
2022-11-27T17:24:14.514Z,91.64
2022-11-27T17:25:46.792Z,92.26
2022-11-27T17:27:18.949Z,92.10
2022-11-27T17:28:50.722Z,92.35
2022-11-27T17:30:22.299Z,91.59
2022-11-27T17:31:53.960Z,91.97
2022-11-27T17:33:26.708Z,92.28
2022-11-27T17:34:58.426Z,92.76
2022-11-27T17:36:35.141Z,91.75
2022-11-27T17:38:08.364Z,91.73
2022-11-27T17:39:41.116Z,91.70
2022-11-27T17:41:13.465Z,91.94
2022-11-27T17:42:45.063Z,91.49
2022-11-27T17:44:16.677Z,91.47
2022-11-27T17:45:48.522Z,92.18
2022-11-27T17:47:20.193Z,91.96
2022-11-27T17:48:51.969Z,91.99
2022-11-27T17:50:23.590Z,91.38
2022-11-27T17:51:55.310Z,90.75
2022-11-27T17:53:28.326Z,90.93
2022-11-27T17:54:59.956Z,91.26
2022-11-27T17:56:32.249Z,91.93
2022-11-27T17:58:04.923Z,92.16
2022-11-27T17:59:36.544Z,92.87
2022-11-27T18:01:13.169Z,93.34
2022-11-27T18:02:44.964Z,93.70
2022-11-27T18:04:16.616Z,93.87
2022-11-27T18:05:48.272Z,94.10
2022-11-27T18:07:20.203Z,94.16
2022-11-27T18:08:55.669Z,93.86
2022-11-27T18:10:27.319Z,92.68
2022-11-27T18:11:58.979Z,92.13
2022-11-27T18:13:32.601Z,92.30
2022-11-27T18:15:04.921Z,92.96
2022-11-27T18:16:37.437Z,93.28
2022-11-27T18:18:09.092Z,93.46
2022-11-27T18:19:41.168Z,93.02
2022-11-27T18:21:18.211Z,92.68
2022-11-27T18:22:50.486Z,91.99
2022-11-27T18:24:24.624Z,92.11
2022-11-27T18:25:56.689Z,92.55
2022-11-27T18:27:28.326Z,93.68
2022-11-27T18:29:00.227Z,92.83
2022-11-27T18:30:31.917Z,92.84
2022-11-27T18:32:03.971Z,92.67
2022-11-27T18:33:35.734Z,92.69
2022-11-27T18:35:08.122Z,92.40
2022-11-27T18:36:39.870Z,92.87
2022-11-27T18:38:11.508Z,92.44
2022-11-27T18:39:45.381Z,92.85
2022-11-27T18:41:18.550Z,92.75
2022-11-27T18:42:50.205Z,92.60
2022-11-27T18:44:21.841Z,92.29
2022-11-27T18:45:53.697Z,92.83
2022-11-27T18:47:25.488Z,92.47
2022-11-27T18:48:57.169Z,92.50
2022-11-27T18:50:29.934Z,92.71
2022-11-27T18:52:01.719Z,92.30
2022-11-27T18:53:33.409Z,92.33
2022-11-27T18:55:07.040Z,92.66
2022-11-27T18:56:38.670Z,92.43
2022-11-27T18:58:12.796Z,92.67
2022-11-27T18:59:44.860Z,92.83
2022-11-27T19:01:17.728Z,92.04
2022-11-27T19:02:49.531Z,92.29
2022-11-27T19:04:21.282Z,91.90
2022-11-27T19:05:52.925Z,91.89
2022-11-27T19:07:26.447Z,92.55
2022-11-27T19:08:58.325Z,92.31
2022-11-27T19:10:31.313Z,91.86
2022-11-27T19:12:03.274Z,92.28
2022-11-27T19:13:35.155Z,92.16
2022-11-27T19:15:07.842Z,92.36
2022-11-27T19:16:43.856Z,92.63
2022-11-27T19:18:15.714Z,92.37
2022-11-27T19:20:04.403Z,92.58
2022-11-27T19:21:36.461Z,92.73
2022-11-27T19:23:08.107Z,92.80
2022-11-27T19:24:39.813Z,92.71
2022-11-27T19:26:14.006Z,92.43
2022-11-27T19:27:45.697Z,93.11
2022-11-27T19:29:17.307Z,92.06
2022-11-27T19:30:49.018Z,92.82
2022-11-27T19:32:20.680Z,92.22
2022-11-27T19:33:52.548Z,92.27
2022-11-27T19:35:26.524Z,92.02
2022-11-27T19:36:58.443Z,92.07
2022-11-27T19:38:30.263Z,91.78
2022-11-27T19:40:02.061Z,92.63
2022-11-27T19:41:35.131Z,92.88
2022-11-27T19:43:06.785Z,93.98
2022-11-27T19:44:38.740Z,94.48
2022-11-27T19:46:16.571Z,93.28
2022-11-27T19:47:48.407Z,92.19
2022-11-27T19:49:21.329Z,91.55
2022-11-27T19:50:53.012Z,92.01
2022-11-27T19:52:24.592Z,91.75
2022-11-27T19:53:56.275Z,92.96
2022-11-27T19:55:27.916Z,93.04
2022-11-27T19:57:00.981Z,93.18
2022-11-27T19:58:32.598Z,92.81
2022-11-27T20:00:05.580Z,92.49
2022-11-27T20:01:39.138Z,92.38
2022-11-27T20:03:10.799Z,92.34
2022-11-27T20:04:42.594Z,91.99
2022-11-27T20:06:15.017Z,91.86
2022-11-27T20:07:46.848Z,91.95
2022-11-27T20:09:18.491Z,92.59